Time;durP1;ratioP1;P1;durP2;ratioP2;P2;SDS_P1;SDS_P2;PMS_P1;PMS_P2;Temp;Humidity;BMP_temperature;BMP_pressure;BME280_temperature;BME280_humidity;BME280_pressure;Samples;Min_cycle;Max_cycle;Signal;HPM_P1;HPM_P2
2023/10/18 00:00:43;;;;;;;39.53;21.00;;;;;;;4.51;87.94;100487.97;10207130;28;20063;-76
2023/10/18 00:05:49;;;;;;;32.38;19.77;;;;;;;4.45;87.64;100493.63;10202770;28;20062;-76
2023/10/18 00:10:53;;;;;;;35.83;20.02;;;;;;;4.39;87.52;100488.66;10194887;28;20060;-76
2023/10/18 00:16:02;;;;;;;38.78;20.42;;;;;;;4.31;87.38;100480.22;10189092;28;20051;-75
2023/10/18 00:21:07;;;;;;;32.88;19.08;;;;;;;4.22;87.57;100473.56;10190345;28;20054;-76
2023/10/18 00:26:11;;;;;;;36.05;18.75;;;;;;;4.18;87.62;100462.25;10193712;28;20051;-76
2023/10/18 00:31:17;;;;;;;36.45;20.20;;;;;;;4.13;87.59;100474.94;10195002;28;20059;-76
2023/10/18 00:36:20;;;;;;;37.63;20.52;;;;;;;4.09;87.69;100469.88;10207109;28;20812;-75
2023/10/18 00:41:32;;;;;;;37.30;19.35;;;;;;;4.12;87.89;100467.03;10200482;28;20055;-76
2023/10/18 00:46:38;;;;;;;35.97;19.83;;;;;;;4.21;87.93;100469.22;10203511;28;20680;-76
2023/10/18 00:51:43;;;;;;;34.10;19.10;;;;;;;4.24;87.16;100461.06;10206608;28;20047;-75
2023/10/18 00:56:46;;;;;;;35.05;18.50;;;;;;;4.22;86.90;100452.31;10201665;28;20146;-76
2023/10/18 01:01:57;;;;;;;37.90;18.85;;;;;;;4.12;86.67;100449.28;10199562;28;20075;-76
2023/10/18 01:07:11;;;;;;;32.00;17.95;;;;;;;4.16;86.96;100444.66;10207740;28;20503;-77
2023/10/18 01:12:15;;;;;;;31.13;17.77;;;;;;;4.36;87.05;100435.59;10211827;28;20153;-77
2023/10/18 01:17:20;;;;;;;29.30;15.48;;;;;;;4.39;86.48;100433.66;10211023;28;20057;-77
2023/10/18 01:22:23;;;;;;;30.30;17.67;;;;;;;4.42;86.08;100439.75;10196013;28;20193;-75
2023/10/18 01:27:28;;;;;;;28.48;15.93;;;;;;;4.34;85.33;100440.16;10198825;28;20415;-77
2023/10/18 01:32:31;;;;;;;25.85;15.45;;;;;;;4.34;85.19;100434.84;10199783;28;20055;-76
2023/10/18 01:37:34;;;;;;;32.45;16.73;;;;;;;4.21;84.21;100433.78;10198104;28;20059;-75
2023/10/18 01:42:40;;;;;;;25.75;16.35;;;;;;;3.98;84.40;100421.69;10190610;28;20421;-78
2023/10/18 01:47:43;;;;;;;27.50;16.33;;;;;;;3.94;84.81;100436.97;10199689;28;20047;-76
2023/10/18 01:52:56;;;;;;;27.10;16.58;;;;;;;3.99;85.06;100434.94;10212412;28;20047;-77
2023/10/18 01:58:00;;;;;;;26.17;16.38;;;;;;;4.02;84.58;100426.78;10215872;28;20652;-77
2023/10/18 02:03:05;;;;;;;28.23;15.55;;;;;;;3.77;84.04;100418.41;10211875;28;20086;-77
2023/10/18 02:08:08;;;;;;;27.92;16.27;;;;;;;3.65;84.39;100406.63;10206187;28;20105;-78
2023/10/18 02:13:14;;;;;;;27.02;16.23;;;;;;;3.50;84.92;100398.47;10200484;28;20051;-76
2023/10/18 02:18:19;;;;;;;29.13;16.27;;;;;;;3.49;85.11;100401.22;10199292;28;21469;-76
2023/10/18 02:23:23;;;;;;;28.45;16.30;;;;;;;3.49;85.24;100391.47;10211680;28;20125;-76
2023/10/18 02:28:27;;;;;;;27.38;16.75;;;;;;;3.41;85.16;100384.81;10209027;28;20053;-77
2023/10/18 02:33:36;;;;;;;32.97;17.52;;;;;;;3.27;85.67;100391.69;10191322;28;20208;-76
2023/10/18 02:38:40;;;;;;;30.80;16.63;;;;;;;3.28;86.29;100382.78;10199028;28;20102;-76
2023/10/18 02:43:48;;;;;;;32.92;17.10;;;;;;;3.26;86.71;100387.34;10197617;28;20650;-77
2023/10/18 02:48:52;;;;;;;29.13;16.25;;;;;;;3.30;86.53;100382.72;10192071;28;20048;-77
2023/10/18 02:54:07;;;;;;;30.15;17.02;;;;;;;3.23;86.62;100376.00;10186756;28;20058;-77
2023/10/18 02:59:13;;;;;;;35.28;17.90;;;;;;;3.24;87.11;100378.56;10187565;28;20067;-76
2023/10/18 03:04:16;;;;;;;33.20;19.55;;;;;;;3.24;87.85;100369.75;10197404;28;20128;-77
2023/10/18 03:09:27;;;;;;;32.58;18.25;;;;;;;3.33;87.60;100368.44;10213630;28;20058;-76
2023/10/18 03:14:39;;;;;;;29.90;18.23;;;;;;;3.31;87.97;100357.88;10205360;28;20051;-77
2023/10/18 03:19:44;;;;;;;33.42;20.20;;;;;;;3.32;88.41;100356.06;10199586;28;20047;-77
2023/10/18 03:24:48;;;;;;;35.78;20.17;;;;;;;3.33;88.91;100352.50;10204770;28;20082;-76
2023/10/18 03:29:57;;;;;;;36.20;20.98;;;;;;;3.32;88.86;100341.03;10201015;28;20566;-77
2023/10/18 03:35:00;;;;;;;35.33;19.55;;;;;;;3.26;89.00;100328.91;10195460;28;20086;-76
2023/10/18 03:40:10;;;;;;;34.83;18.63;;;;;;;3.19;88.77;100318.69;10194252;28;21235;-75
2023/10/18 03:45:20;;;;;;;32.90;18.23;;;;;;;3.14;88.89;100312.75;10192801;28;20066;-78
2023/10/18 03:50:29;;;;;;;37.10;20.52;;;;;;;3.05;88.80;100314.94;10198056;28;20191;-77
2023/10/18 03:55:37;;;;;;;38.17;23.25;;;;;;;3.06;89.08;100311.34;10200735;28;20726;-77
2023/10/18 04:00:47;;;;;;;45.60;23.38;;;;;;;3.06;89.50;100306.03;10199778;28;20051;-76
2023/10/18 04:05:52;;;;;;;37.00;21.15;;;;;;;3.20;89.95;100307.97;10189532;28;20565;-77
2023/10/18 04:10:59;;;;;;;37.22;21.15;;;;;;;3.31;89.99;100295.94;10187760;28;20612;-77
2023/10/18 04:16:09;;;;;;;37.22;20.52;;;;;;;3.35;89.67;100294.88;10195773;28;20419;-77
2023/10/18 04:21:15;;;;;;;33.70;19.10;;;;;;;3.43;89.76;100282.03;10199106;28;20047;-77
2023/10/18 04:26:19;;;;;;;35.75;21.45;;;;;;;3.47;89.56;100283.59;10205895;28;20051;-77
2023/10/18 04:31:24;;;;;;;33.38;19.08;;;;;;;3.37;89.02;100277.03;10218859;28;20057;-77
2023/10/18 04:36:27;;;;;;;30.95;18.98;;;;;;;3.36;89.16;100275.34;10210277;28;20059;-77
2023/10/18 04:41:32;;;;;;;34.17;21.00;;;;;;;3.38;89.25;100269.00;10204196;28;20066;-77
2023/10/18 04:46:36;;;;;;;33.45;20.88;;;;;;;3.40;88.95;100269.78;10213577;28;20063;-77
2023/10/18 04:51:45;;;;;;;27.08;16.75;;;;;;;3.06;89.23;100276.00;10208760;28;20245;-77
2023/10/18 04:56:56;;;;;;;31.42;17.83;;;;;;;2.94;90.06;100261.56;10205256;28;20643;-77
2023/10/18 05:02:00;;;;;;;29.38;18.30;;;;;;;2.95;89.90;100260.59;10207249;28;20059;-78
2023/10/18 05:07:14;;;;;;;30.55;17.98;;;;;;;2.99;89.85;100240.97;10203157;28;20068;-77
2023/10/18 05:12:28;;;;;;;31.10;18.38;;;;;;;3.13;89.48;100242.03;10196143;28;21256;-77
2023/10/18 05:17:35;;;;;;;33.63;17.75;;;;;;;3.06;88.87;100246.78;10201476;28;20055;-78
2023/10/18 05:22:41;;;;;;;30.13;17.27;;;;;;;2.95;88.82;100234.06;10206214;28;20054;-78
2023/10/18 05:27:50;;;;;;;25.98;16.70;;;;;;;2.94;89.49;100229.72;10199340;28;20059;-77
2023/10/18 05:33:04;;;;;;;25.95;16.35;;;;;;;2.99;89.16;100230.34;10206623;28;20093;-77
2023/10/18 05:38:19;;;;;;;28.30;17.63;;;;;;;3.01;89.26;100224.94;10214269;28;20050;-77
2023/10/18 05:43:30;;;;;;;35.95;18.73;;;;;;;3.08;89.91;100228.16;10213428;28;20361;-77
2023/10/18 05:48:40;;;;;;;29.67;18.23;;;;;;;3.20;89.79;100220.38;10210293;28;20054;-77
2023/10/18 05:53:44;;;;;;;29.35;18.05;;;;;;;3.17;89.23;100211.72;10209713;28;20055;-77
2023/10/18 05:59:01;;;;;;;31.95;17.92;;;;;;;3.16;89.33;100223.28;10206487;28;20075;-77
2023/10/18 06:04:15;;;;;;;31.05;18.67;;;;;;;3.18;90.11;100209.00;10199636;28;20093;-76
2023/10/18 06:09:27;;;;;;;33.95;19.50;;;;;;;3.25;89.57;100197.09;10195198;28;21232;-77
2023/10/18 06:14:40;;;;;;;30.10;18.52;;;;;;;3.34;90.09;100187.78;10209938;28;20078;-78
2023/10/18 06:19:56;;;;;;;35.15;18.98;;;;;;;3.42;90.15;100184.72;10261715;28;20059;-78
2023/10/18 06:25:25;;;;;;;32.63;19.13;;;;;;;3.56;89.43;100176.84;10224430;28;20073;-79
2023/10/18 06:30:35;;;;;;;34.30;19.35;;;;;;;3.64;89.17;100177.28;10227356;28;20102;-77
2023/10/18 06:35:51;;;;;;;35.50;17.20;;;;;;;3.85;91.44;100172.56;10211511;28;20054;-77
2023/10/18 06:41:03;;;;;;;74.68;33.95;;;;;;;5.25;88.14;100165.16;10227503;28;20062;-78
2023/10/18 06:46:22;;;;;;;29.55;19.10;;;;;;;5.81;83.42;100162.50;10210063;28;20554;-77
2023/10/18 06:56:53;;;;;;;22.20;13.18;;;;;;;6.01;78.49;100157.72;10210348;28;20058;-76
2023/10/18 07:01:58;;;;;;;21.92;12.82;;;;;;;6.23;76.81;100154.50;10206594;28;20522;-77
2023/10/18 07:07:11;;;;;;;21.33;13.60;;;;;;;6.02;75.68;100159.41;10196822;28;20048;-77
2023/10/18 07:12:17;;;;;;;24.20;13.93;;;;;;;5.59;77.41;100154.19;10216646;28;20471;-77
2023/10/18 07:17:24;;;;;;;21.92;14.38;;;;;;;5.31;79.54;100144.44;10216747;28;20787;-77
2023/10/18 07:22:44;;;;;;;26.90;14.15;;;;;;;5.35;79.70;100149.47;10214191;28;20061;-76
2023/10/18 07:28:00;;;;;;;24.77;14.65;;;;;;;5.57;79.37;100134.78;10229788;28;20043;-76
2023/10/18 07:33:09;;;;;;;25.65;15.27;;;;;;;5.57;79.51;100119.66;10214831;28;20054;-76
2023/10/18 07:38:25;;;;;;;23.10;14.80;;;;;;;6.05;78.68;100111.22;10219907;28;20058;-76
2023/10/18 07:43:32;;;;;;;24.38;13.75;;;;;;;6.15;77.78;100113.16;10205728;28;20458;-75
2023/10/18 07:48:37;;;;;;;24.10;14.93;;;;;;;6.46;76.59;100110.25;10199777;28;20046;-77
2023/10/18 07:53:42;;;;;;;23.25;14.52;;;;;;;6.50;76.11;100093.03;10233966;28;20054;-76
2023/10/18 07:58:53;;;;;;;25.33;15.00;;;;;;;6.68;75.73;100089.13;10247635;28;20070;-77
2023/10/18 08:03:57;;;;;;;24.80;14.65;;;;;;;7.29;74.29;100086.63;10205217;28;20075;-77
2023/10/18 08:09:05;;;;;;;20.80;13.43;;;;;;;7.45;72.45;100091.72;10224409;28;20063;-75
2023/10/18 08:14:16;;;;;;;20.17;14.15;;;;;;;7.73;71.27;100091.41;10207065;28;20047;-76
2023/10/18 08:19:24;;;;;;;22.65;12.68;;;;;;;7.86;70.82;100091.34;10201328;28;20054;-76
2023/10/18 08:24:34;;;;;;;17.88;12.63;;;;;;;7.70;70.54;100083.59;10193543;28;20051;-77
2023/10/18 08:29:38;;;;;;;18.27;11.65;;;;;;;7.95;70.66;100079.09;10200149;28;20413;-77
2023/10/18 08:34:41;;;;;;;18.55;12.23;;;;;;;7.79;70.10;100081.22;10209298;28;20050;-77
2023/10/18 08:39:53;;;;;;;20.40;12.80;;;;;;;7.94;70.39;100074.72;10207397;28;20043;-76
2023/10/18 08:44:56;;;;;;;19.47;11.90;;;;;;;8.06;69.18;100068.44;10203229;28;20043;-77
2023/10/18 08:49:59;;;;;;;20.73;11.98;;;;;;;8.12;69.16;100064.47;10195212;28;20051;-76
2023/10/18 09:05:39;;;;;;;21.00;12.48;;;;;;;8.11;68.89;100050.22;10227689;28;20047;-76
2023/10/18 09:10:49;;;;;;;17.10;11.32;;;;;;;8.29;68.18;100039.09;10204661;28;20063;-76
2023/10/18 09:16:01;;;;;;;15.52;10.40;;;;;;;8.45;66.82;100047.66;10221029;28;20051;-75
2023/10/18 09:21:09;;;;;;;16.75;10.48;;;;;;;8.58;67.10;100023.47;10220108;28;20060;-78
2023/10/18 09:26:26;;;;;;;15.13;10.25;;;;;;;8.20;66.13;100027.28;10232616;28;20589;-74
2023/10/18 09:31:32;;;;;;;17.60;10.40;;;;;;;8.25;65.98;100021.56;10226644;28;20940;-75
2023/10/18 09:36:39;;;;;;;18.85;11.25;;;;;;;8.67;65.29;100020.09;10238300;28;21152;-75
2023/10/18 09:41:58;;;;;;;18.35;10.27;;;;;;;8.74;65.18;100004.38;10241301;28;20050;-77
2023/10/18 09:47:09;;;;;;;18.15;9.77;;;;;;;8.62;65.14;100011.56;10235521;28;20054;-76
2023/10/18 09:52:16;;;;;;;17.38;10.90;;;;;;;9.12;64.18;99995.09;10214738;28;20057;-75
2023/10/18 09:57:24;;;;;;;13.90;9.18;;;;;;;9.20;62.89;99998.00;10217793;28;20126;-76
2023/10/18 10:02:30;;;;;;;14.85;10.57;;;;;;;9.37;62.24;99989.41;10228607;28;20173;-75
2023/10/18 10:07:39;;;;;;;12.68;9.43;;;;;;;9.73;61.21;99985.50;10255852;28;20053;-76
2023/10/18 10:12:46;;;;;;;14.63;9.65;;;;;;;9.84;61.00;99981.94;10236426;28;20059;-78
2023/10/18 10:18:06;;;;;;;15.57;9.60;;;;;;;10.05;59.30;99979.28;10226914;28;20057;-75
2023/10/18 10:23:15;;;;;;;13.80;9.68;;;;;;;10.09;58.31;99961.97;10217278;28;20426;-77
2023/10/18 10:34:19;;;;;;;;;;;;;;;11.62;54.42;99941.25;10191490;28;20055;-75
2023/10/18 10:39:25;;;;;;;13.55;8.88;;;;;;;12.29;53.69;99929.56;10225125;28;19966;-76
2023/10/18 10:44:31;;;;;;;11.35;7.50;;;;;;;12.35;52.43;99914.66;10215472;28;20054;-76
2023/10/18 10:49:49;;;;;;;12.68;7.82;;;;;;;12.53;51.72;99902.13;10228320;28;20055;-76
2023/10/18 10:55:01;;;;;;;11.70;7.78;;;;;;;13.37;49.12;99903.72;10259562;28;20061;-76
2023/10/18 11:00:22;;;;;;;;;;;;;;;13.44;49.51;99904.81;10238070;28;20051;-74
2023/10/18 11:05:36;;;;;;;11.82;7.28;;;;;;;14.27;48.08;99877.41;10183178;28;19927;-75
2023/10/18 11:16:20;;;;;;;10.07;6.88;;;;;;;14.94;45.03;99858.59;10218506;28;20063;-75
2023/10/18 11:21:30;;;;;;;7.57;6.70;;;;;;;14.48;46.84;99847.31;10207018;28;20069;-77
2023/10/18 11:26:39;;;;;;;11.35;7.05;;;;;;;14.39;46.16;99832.06;10215351;28;20059;-76
2023/10/18 11:31:44;;;;;;;7.65;5.43;;;;;;;15.68;44.44;99818.09;10210147;28;20138;-76
2023/10/18 11:36:50;;;;;;;8.18;6.20;;;;;;;16.62;42.38;99808.34;10199133;28;20058;-78
2023/10/18 11:41:56;;;;;;;6.53;5.55;;;;;;;17.11;40.80;99810.72;10206780;28;20043;-77
2023/10/18 11:47:20;;;;;;;8.77;5.68;;;;;;;13.75;44.90;99811.78;10193809;28;21284;-76
2023/10/18 11:52:23;;;;;;;8.70;6.22;;;;;;;13.08;48.51;99808.69;10211080;28;21776;-77
2023/10/18 11:57:30;;;;;;;10.18;5.50;;;;;;;12.98;48.26;99789.91;10208121;28;20093;-77
2023/10/18 12:02:34;;;;;;;8.18;5.50;;;;;;;13.38;47.57;99783.19;10190959;28;20537;-77
2023/10/18 12:07:44;;;;;;;6.28;4.70;;;;;;;15.62;45.50;99770.03;10199963;28;20062;-77
2023/10/18 12:12:49;;;;;;;7.57;4.90;;;;;;;16.20;44.08;99743.63;10191092;28;20047;-77
2023/10/18 12:17:55;;;;;;;6.30;4.60;;;;;;;17.10;42.43;99743.06;10229207;28;20600;-77
2023/10/18 12:22:59;;;;;;;7.05;4.32;;;;;;;16.25;42.29;99733.09;10201454;28;20178;-76
2023/10/18 14:23:54;;;;;;;10.70;5.28;;;;;;;13.52;48.96;99493.94;10164146;29;20063;-75
2023/10/18 14:28:59;;;;;;;8.23;5.18;;;;;;;13.70;49.33;99485.72;10108888;29;21124;-75
2023/10/18 14:34:02;;;;;;;6.78;4.57;;;;;;;13.86;49.07;99464.13;10127470;29;20510;-77
2023/10/18 14:39:08;;;;;;;8.23;4.82;;;;;;;13.65;49.51;99451.13;10131573;29;20490;-77
2023/10/18 14:44:11;;;;;;;5.80;4.70;;;;;;;13.17;49.75;99449.16;10129971;29;20059;-77
2023/10/18 14:49:14;;;;;;;8.27;4.07;;;;;;;13.41;49.81;99430.38;10134394;29;20146;-76
2023/10/18 14:54:19;;;;;;;8.25;4.57;;;;;;;13.27;49.79;99420.16;10131059;29;21208;-77
2023/10/18 14:59:22;;;;;;;5.97;4.03;;;;;;;13.10;50.13;99416.59;10134134;29;20119;-77
2023/10/18 15:04:26;;;;;;;5.03;3.97;;;;;;;12.62;51.16;99415.41;10124170;29;20060;-76
2023/10/18 15:09:30;;;;;;;5.63;3.88;;;;;;;12.47;51.64;99423.22;10135490;29;20411;-77
2023/10/18 15:14:34;;;;;;;7.63;4.07;;;;;;;12.43;52.43;99412.97;10129567;29;20048;-77
2023/10/18 15:19:37;;;;;;;6.28;3.70;;;;;;;12.21;53.01;99407.06;10138122;29;20052;-77
2023/10/18 15:24:41;;;;;;;5.82;4.25;;;;;;;12.09;54.29;99398.41;10132295;29;20053;-77
2023/10/18 15:29:44;;;;;;;6.00;4.53;;;;;;;11.91;55.24;99392.22;10134569;29;20056;-78
2023/10/18 15:34:47;;;;;;;7.50;5.00;;;;;;;11.57;56.24;99387.56;10140132;29;20146;-77
2023/10/18 15:39:51;;;;;;;6.75;4.75;;;;;;;11.27;57.66;99381.63;10138691;28;20891;-77
2023/10/18 15:44:55;;;;;;;7.47;4.57;;;;;;;10.96;58.70;99367.63;10131416;29;20139;-78
2023/10/18 15:49:58;;;;;;;9.65;4.68;;;;;;;10.88;59.13;99362.19;10126538;29;20101;-77
2023/10/18 15:55:03;;;;;;;6.28;4.88;;;;;;;10.62;60.34;99351.31;10114607;29;20557;-77
2023/10/18 16:00:09;;;;;;;9.43;5.80;;;;;;;10.53;61.11;99342.31;10121978;29;20191;-77
2023/10/18 16:05:14;;;;;;;9.15;5.97;;;;;;;10.28;62.19;99335.78;10125699;29;20517;-77
2023/10/18 16:10:18;;;;;;;6.97;5.22;;;;;;;10.15;62.44;99332.63;10127410;29;21234;-77
2023/10/18 16:15:23;;;;;;;9.10;5.38;;;;;;;10.06;63.27;99320.91;10125017;29;20067;-78
2023/10/18 16:20:27;;;;;;;8.63;5.70;;;;;;;9.83;64.10;99309.66;10131276;29;20059;-78
2023/10/18 16:25:32;;;;;;;9.85;6.38;;;;;;;9.82;64.40;99293.69;10143060;29;20068;-77
2023/10/18 16:30:35;;;;;;;8.40;6.40;;;;;;;9.73;64.82;99290.06;10134685;29;20085;-77
2023/10/18 16:35:38;;;;;;;10.48;6.07;;;;;;;9.64;65.34;99299.81;10128804;29;20099;-78
2023/10/18 16:40:42;;;;;;;9.43;6.75;;;;;;;9.56;65.67;99301.53;10123529;29;20047;-78
2023/10/18 16:45:45;;;;;;;10.02;6.68;;;;;;;9.39;66.69;99292.41;10142062;29;20408;-78
2023/10/18 16:50:48;;;;;;;14.18;7.18;;;;;;;9.37;66.99;99291.69;10145534;29;20075;-78
2023/10/18 16:55:55;;;;;;;9.57;6.55;;;;;;;9.27;67.50;99297.09;10140571;29;20052;-77
2023/10/18 17:00:58;;;;;;;12.23;7.47;;;;;;;9.32;67.31;99294.78;10133474;29;20111;-77
2023/10/18 17:06:04;;;;;;;12.60;7.72;;;;;;;9.28;67.44;99285.38;10145338;29;20060;-77
2023/10/18 17:11:12;;;;;;;16.42;9.30;;;;;;;9.23;67.49;99275.06;10143505;29;20051;-77
2023/10/18 17:16:16;;;;;;;12.70;8.60;;;;;;;9.10;67.42;99268.31;10143854;29;20059;-77
2023/10/18 17:21:21;;;;;;;9.27;6.95;;;;;;;9.01;67.24;99246.75;10137923;29;20048;-78
2023/10/18 17:26:26;;;;;;;9.70;7.25;;;;;;;8.91;67.16;99245.06;10130962;29;20118;-78
2023/10/18 17:31:29;;;;;;;11.35;7.38;;;;;;;8.90;66.79;99244.22;10128101;29;20059;-77
2023/10/18 17:36:33;;;;;;;13.02;8.10;;;;;;;8.93;66.15;99245.75;10124431;29;20463;-78
2023/10/18 17:41:37;;;;;;;10.95;7.03;;;;;;;8.97;65.91;99242.69;10124265;29;20047;-77
2023/10/18 17:46:48;;;;;;;8.88;6.47;;;;;;;8.63;66.72;99231.53;10106312;29;20048;-77
2023/10/18 17:51:51;;;;;;;11.65;6.68;;;;;;;8.86;65.89;99224.06;10103260;29;20593;-77
2023/10/18 17:56:56;;;;;;;8.52;6.43;;;;;;;8.84;66.10;99213.50;10124186;29;20523;-78
2023/10/18 18:01:59;;;;;;;10.52;6.50;;;;;;;8.69;66.21;99204.19;10128814;29;20063;-78
2023/10/18 18:07:03;;;;;;;10.60;6.38;;;;;;;8.69;66.48;99189.97;10125420;29;20060;-77
2023/10/18 18:12:08;;;;;;;12.65;7.30;;;;;;;8.55;66.12;99176.00;10118979;29;20048;-77
2023/10/18 18:17:13;;;;;;;7.63;6.20;;;;;;;8.50;66.19;99175.59;10109438;29;20065;-78
2023/10/18 18:22:16;;;;;;;12.30;7.38;;;;;;;8.71;65.87;99188.84;10123062;29;20061;-77
2023/10/18 18:27:20;;;;;;;10.95;7.13;;;;;;;8.67;66.33;99189.28;10119331;29;20060;-78
2023/10/18 18:32:23;;;;;;;11.20;7.65;;;;;;;8.65;66.75;99172.50;10124912;29;20527;-79
2023/10/18 18:37:26;;;;;;;13.82;7.30;;;;;;;8.43;67.04;99160.22;10123388;29;20142;-78
2023/10/18 18:42:32;;;;;;;13.90;7.65;;;;;;;8.59;66.57;99150.66;10122242;29;20060;-77
2023/10/18 18:47:35;;;;;;;12.25;7.32;;;;;;;8.65;66.10;99145.75;10119952;29;20131;-78
2023/10/18 18:52:38;;;;;;;10.98;7.30;;;;;;;8.79;65.65;99145.28;10123835;29;20044;-78
2023/10/18 18:57:44;;;;;;;12.70;7.15;;;;;;;8.69;65.75;99123.88;10110429;29;21189;-77
2023/10/18 19:02:51;;;;;;;12.05;8.32;;;;;;;8.77;65.42;99115.97;10127904;29;20067;-77
2023/10/18 19:07:54;;;;;;;11.10;7.10;;;;;;;8.69;65.38;99115.00;10125882;29;20055;-77
2023/10/18 19:12:59;;;;;;;14.45;7.57;;;;;;;8.81;65.22;99098.66;10112551;29;20059;-77
2023/10/18 19:18:02;;;;;;;17.30;7.72;;;;;;;8.75;65.07;99087.66;10124154;29;20067;-77
2023/10/18 19:23:06;;;;;;;14.00;8.18;;;;;;;8.66;65.25;99080.50;10115592;29;20059;-79
2023/10/18 19:28:11;;;;;;;12.15;7.82;;;;;;;8.74;65.26;99076.09;10129847;29;20063;-78
2023/10/18 19:33:14;;;;;;;13.05;8.38;;;;;;;8.81;65.01;99082.59;10128735;29;20076;-79
2023/10/18 19:38:18;;;;;;;9.57;7.45;;;;;;;8.70;65.52;99055.97;10137173;29;20079;-77
2023/10/18 19:43:23;;;;;;;12.90;8.45;;;;;;;8.82;66.11;99040.56;10129495;29;20797;-77
2023/10/18 19:48:27;;;;;;;12.55;8.32;;;;;;;8.63;68.05;99036.13;10132075;29;20078;-77
2023/10/18 19:53:31;;;;;;;15.02;8.90;;;;;;;8.48;68.10;99040.25;10128097;29;20048;-78
2023/10/18 19:58:35;;;;;;;12.52;8.55;;;;;;;8.56;67.52;99018.97;10125265;29;20645;-78
2023/10/18 20:03:39;;;;;;;13.20;8.95;;;;;;;8.78;66.75;99012.41;10121482;29;20056;-77
2023/10/18 20:08:42;;;;;;;13.77;9.45;;;;;;;8.82;66.52;99003.94;10118151;29;20048;-77
2023/10/18 20:13:47;;;;;;;14.35;9.07;;;;;;;8.98;66.36;99002.47;10105011;29;21210;-77
2023/10/18 20:18:50;;;;;;;14.35;8.25;;;;;;;8.93;65.94;98997.53;10121159;29;20055;-77
2023/10/18 20:23:52;;;;;;;15.73;9.05;;;;;;;9.01;66.35;98986.94;10095317;29;20060;-77
2023/10/18 20:28:57;;;;;;;16.63;9.85;;;;;;;9.28;65.56;98979.91;10125015;29;20063;-76
2023/10/18 20:34:00;;;;;;;16.60;9.25;;;;;;;9.17;66.18;98972.06;10122185;29;20056;-77
2023/10/18 20:39:03;;;;;;;16.52;10.43;;;;;;;9.05;66.01;98969.59;10138496;29;20059;-78
2023/10/18 20:44:17;;;;;;;14.98;10.38;;;;;;;9.08;66.42;98959.56;10136065;29;20071;-78
2023/10/18 20:49:22;;;;;;;17.17;10.73;;;;;;;9.28;66.24;98939.69;10125569;29;20055;-77
2023/10/18 20:54:32;;;;;;;20.02;11.32;;;;;;;9.19;66.23;98928.06;10108754;29;20041;-77
2023/10/18 20:59:38;;;;;;;17.63;11.05;;;;;;;9.22;66.22;98917.03;10128843;29;20051;-77
2023/10/18 21:04:44;;;;;;;21.75;11.50;;;;;;;9.33;66.44;98894.53;10117433;29;20056;-77
2023/10/18 21:09:47;;;;;;;16.80;11.07;;;;;;;9.23;66.83;98883.88;10124363;29;20044;-76
2023/10/18 21:14:52;;;;;;;17.65;11.93;;;;;;;9.13;67.23;98880.44;10138846;29;20108;-77
2023/10/18 21:19:55;;;;;;;20.60;10.32;;;;;;;9.43;66.88;98868.50;10160371;29;20107;-77
2023/10/18 21:25:00;;;;;;;19.33;11.07;;;;;;;9.45;66.98;98845.06;10123771;29;20064;-77
2023/10/18 21:30:09;;;;;;;18.30;10.90;;;;;;;9.37;66.89;98836.94;10119347;29;20759;-77
2023/10/18 21:35:13;;;;;;;20.48;11.70;;;;;;;9.33;68.49;98835.59;10114520;29;20058;-77
2023/10/18 21:40:20;;;;;;;15.90;11.50;;;;;;;8.83;75.27;98823.56;10114700;29;20073;-77
2023/10/18 21:45:24;;;;;;;19.05;12.18;;;;;;;8.49;79.95;98826.00;10110431;29;20048;-77
2023/10/18 21:50:28;;;;;;;18.85;12.40;;;;;;;8.35;81.31;98821.97;10131673;29;20059;-77
2023/10/18 21:55:31;;;;;;;24.00;13.07;;;;;;;8.49;82.52;98803.75;10129891;29;20063;-78
2023/10/18 22:00:42;;;;;;;19.40;13.52;;;;;;;8.43;85.97;98802.50;10132820;29;21311;-78
2023/10/18 22:05:46;;;;;;;19.75;14.55;;;;;;;7.88;89.07;98786.41;10127782;29;20056;-77
2023/10/18 22:10:49;;;;;;;23.67;14.88;;;;;;;7.78;92.26;98790.94;10126048;29;21183;-77
2023/10/18 22:16:00;;;;;;;22.52;15.45;;;;;;;7.60;92.29;98785.53;10121085;29;20048;-77
2023/10/18 22:21:03;;;;;;;25.75;15.80;;;;;;;7.85;93.49;98771.50;10119092;29;20456;-76
2023/10/18 22:26:12;;;;;;;25.25;16.38;;;;;;;7.98;93.69;98756.94;10123171;29;20156;-76
2023/10/18 22:31:19;;;;;;;23.30;15.65;;;;;;;7.94;92.80;98743.03;10122603;29;20058;-77
2023/10/18 22:36:23;;;;;;;24.00;15.68;;;;;;;7.96;92.14;98743.75;10113604;29;20118;-76
2023/10/18 22:41:33;;;;;;;23.63;14.48;;;;;;;8.15;93.39;98740.97;10114641;29;20056;-77
2023/10/18 22:46:47;;;;;;;26.20;15.73;;;;;;;7.97;91.09;98729.38;10110573;29;20423;-77
2023/10/18 22:51:58;;;;;;;21.30;14.63;;;;;;;8.03;90.49;98723.44;10113988;29;20055;-77
2023/10/18 22:57:06;;;;;;;26.35;15.35;;;;;;;7.95;91.61;98710.81;10093732;29;20048;-77
2023/10/18 23:02:11;;;;;;;24.27;15.50;;;;;;;7.89;91.96;98713.22;10117513;29;20133;-77
2023/10/18 23:07:24;;;;;;;25.10;17.25;;;;;;;7.95;92.48;98708.16;10115455;29;20068;-77
2023/10/18 23:12:28;;;;;;;21.98;15.10;;;;;;;8.08;92.78;98704.28;10130818;29;20443;-77
2023/10/18 23:17:35;;;;;;;24.23;16.65;;;;;;;8.12;94.18;98698.50;10128844;29;21133;-77
2023/10/18 23:22:49;;;;;;;24.15;16.88;;;;;;;7.87;93.74;98696.50;10122559;29;20074;-77
2023/10/18 23:33:31;;;;;;;24.73;16.90;;;;;;;7.68;97.77;98676.06;10125233;29;20048;-77
2023/10/18 23:38:38;;;;;;;25.80;17.80;;;;;;;7.48;98.23;98664.59;10120931;29;20067;-76
2023/10/18 23:43:49;;;;;;;30.08;18.00;;;;;;;7.57;99.77;98668.22;10111985;29;20044;-77
2023/10/18 23:49:27;;;;;;;25.48;17.38;;;;;;;7.51;100.00;98656.28;10115755;29;20123;-78
2023/10/18 23:54:29;;;;;;;27.70;18.60;;;;;;;7.41;100.00;98653.66;10103423;29;20059;-78
2023/10/18 23:59:35;;;;;;;33.72;19.15;;;;;;;7.53;100.00;98638.28;10120047;29;20048;-77
